sensor_id;sensor_type;location;lat;lon;timestamp;P1;durP1;ratioP1;P2;durP2;ratioP2
16193;SDS011;8204;53.582;10.080;2022-09-09T00:01:00;38.70;;;35.10;;
16193;SDS011;8204;53.582;10.080;2022-09-09T00:03:37;35.47;;;32.17;;
16193;SDS011;8204;53.582;10.080;2022-09-09T00:06:14;35.30;;;32.03;;
16193;SDS011;8204;53.582;10.080;2022-09-09T00:08:51;35.17;;;31.87;;
16193;SDS011;8204;53.582;10.080;2022-09-09T00:11:26;55.80;;;34.90;;
16193;SDS011;8204;53.582;10.080;2022-09-09T00:13:59;36.30;;;32.97;;
16193;SDS011;8204;53.582;10.080;2022-09-09T00:16:29;35.87;;;32.47;;
16193;SDS011;8204;53.582;10.080;2022-09-09T00:19:04;35.53;;;32.23;;
16193;SDS011;8204;53.582;10.080;2022-09-09T00:21:36;33.57;;;30.43;;
16193;SDS011;8204;53.582;10.080;2022-09-09T00:24:10;34.83;;;31.53;;
16193;SDS011;8204;53.582;10.080;2022-09-09T00:26:40;33.80;;;30.80;;
16193;SDS011;8204;53.582;10.080;2022-09-09T00:29:13;33.93;;;30.80;;
16193;SDS011;8204;53.582;10.080;2022-09-09T00:31:48;34.50;;;31.30;;
16193;SDS011;8204;53.582;10.080;2022-09-09T00:34:18;32.20;;;29.30;;
16193;SDS011;8204;53.582;10.080;2022-09-09T00:36:49;33.37;;;30.17;;
16193;SDS011;8204;53.582;10.080;2022-09-09T00:39:22;32.83;;;29.83;;
16193;SDS011;8204;53.582;10.080;2022-09-09T00:41:56;32.20;;;29.23;;
16193;SDS011;8204;53.582;10.080;2022-09-09T00:44:36;29.47;;;26.87;;
16193;SDS011;8204;53.582;10.080;2022-09-09T00:47:09;29.33;;;26.47;;
16193;SDS011;8204;53.582;10.080;2022-09-09T00:49:47;28.93;;;26.43;;
16193;SDS011;8204;53.582;10.080;2022-09-09T00:52:26;28.13;;;25.70;;
16193;SDS011;8204;53.582;10.080;2022-09-09T00:55:05;26.50;;;24.20;;
16193;SDS011;8204;53.582;10.080;2022-09-09T00:57:38;28.43;;;25.80;;
16193;SDS011;8204;53.582;10.080;2022-09-09T01:00:17;26.23;;;24.03;;
16193;SDS011;8204;53.582;10.080;2022-09-09T01:05:43;26.83;;;24.33;;
16193;SDS011;8204;53.582;10.080;2022-09-09T01:08:24;27.93;;;25.50;;
16193;SDS011;8204;53.582;10.080;2022-09-09T01:11:02;24.47;;;22.37;;
16193;SDS011;8204;53.582;10.080;2022-09-09T01:13:30;26.17;;;23.77;;
16193;SDS011;8204;53.582;10.080;2022-09-09T01:16:00;27.93;;;25.53;;
16193;SDS011;8204;53.582;10.080;2022-09-09T01:18:30;24.67;;;22.53;;
16193;SDS011;8204;53.582;10.080;2022-09-09T01:21:02;26.60;;;24.33;;
16193;SDS011;8204;53.582;10.080;2022-09-09T01:23:43;25.70;;;23.47;;
16193;SDS011;8204;53.582;10.080;2022-09-09T01:26:26;27.73;;;25.20;;
16193;SDS011;8204;53.582;10.080;2022-09-09T01:28:54;25.63;;;23.27;;
16193;SDS011;8204;53.582;10.080;2022-09-09T01:31:21;25.53;;;23.40;;
16193;SDS011;8204;53.582;10.080;2022-09-09T01:33:52;27.17;;;24.70;;
16193;SDS011;8204;53.582;10.080;2022-09-09T01:36:20;25.77;;;23.43;;
16193;SDS011;8204;53.582;10.080;2022-09-09T01:38:52;28.33;;;25.83;;
16193;SDS011;8204;53.582;10.080;2022-09-09T01:41:19;26.13;;;23.87;;
16193;SDS011;8204;53.582;10.080;2022-09-09T01:43:48;26.53;;;24.23;;
16193;SDS011;8204;53.582;10.080;2022-09-09T01:46:19;26.97;;;24.57;;
16193;SDS011;8204;53.582;10.080;2022-09-09T01:48:48;26.23;;;24.07;;
16193;SDS011;8204;53.582;10.080;2022-09-09T01:51:17;25.00;;;22.90;;
16193;SDS011;8204;53.582;10.080;2022-09-09T01:53:44;27.30;;;24.63;;
16193;SDS011;8204;53.582;10.080;2022-09-09T01:56:15;26.87;;;24.63;;
16193;SDS011;8204;53.582;10.080;2022-09-09T01:58:56;27.47;;;25.03;;
16193;SDS011;8204;53.582;10.080;2022-09-09T02:01:34;25.63;;;23.33;;
16193;SDS011;8204;53.582;10.080;2022-09-09T02:04:15;24.43;;;22.27;;
16193;SDS011;8204;53.582;10.080;2022-09-09T02:07:02;25.53;;;23.13;;
16193;SDS011;8204;53.582;10.080;2022-09-09T02:09:30;24.73;;;22.57;;
16193;SDS011;8204;53.582;10.080;2022-09-09T02:11:57;26.27;;;24.07;;
16193;SDS011;8204;53.582;10.080;2022-09-09T02:14:30;26.07;;;23.87;;
16193;SDS011;8204;53.582;10.080;2022-09-09T02:17:01;26.87;;;24.17;;
16193;SDS011;8204;53.582;10.080;2022-09-09T02:19:32;23.53;;;21.43;;
16193;SDS011;8204;53.582;10.080;2022-09-09T02:22:03;25.70;;;23.33;;
16193;SDS011;8204;53.582;10.080;2022-09-09T02:24:31;22.87;;;20.67;;
16193;SDS011;8204;53.582;10.080;2022-09-09T02:27:00;24.60;;;22.30;;
16193;SDS011;8204;53.582;10.080;2022-09-09T02:29:33;23.57;;;21.57;;
16193;SDS011;8204;53.582;10.080;2022-09-09T02:32:04;23.40;;;21.30;;
16193;SDS011;8204;53.582;10.080;2022-09-09T02:34:33;27.10;;;24.33;;
16193;SDS011;8204;53.582;10.080;2022-09-09T02:37:03;26.17;;;23.67;;
16193;SDS011;8204;53.582;10.080;2022-09-09T02:39:32;25.13;;;22.87;;
16193;SDS011;8204;53.582;10.080;2022-09-09T02:42:00;25.70;;;23.33;;
16193;SDS011;8204;53.582;10.080;2022-09-09T02:44:29;23.43;;;21.47;;
16193;SDS011;8204;53.582;10.080;2022-09-09T02:47:13;23.63;;;21.43;;
16193;SDS011;8204;53.582;10.080;2022-09-09T02:49:51;23.77;;;21.57;;
16193;SDS011;8204;53.582;10.080;2022-09-09T02:52:30;22.60;;;20.37;;
16193;SDS011;8204;53.582;10.080;2022-09-09T02:55:06;22.50;;;20.30;;
16193;SDS011;8204;53.582;10.080;2022-09-09T02:57:38;22.23;;;20.33;;
16193;SDS011;8204;53.582;10.080;2022-09-09T03:00:06;21.53;;;19.63;;
16193;SDS011;8204;53.582;10.080;2022-09-09T03:02:36;24.70;;;22.33;;
16193;SDS011;8204;53.582;10.080;2022-09-09T03:05:05;22.27;;;20.30;;
16193;SDS011;8204;53.582;10.080;2022-09-09T03:07:32;22.30;;;20.37;;
16193;SDS011;8204;53.582;10.080;2022-09-09T03:10:00;23.70;;;21.50;;
16193;SDS011;8204;53.582;10.080;2022-09-09T03:12:26;23.70;;;21.47;;
16193;SDS011;8204;53.582;10.080;2022-09-09T03:14:53;24.47;;;22.27;;
16193;SDS011;8204;53.582;10.080;2022-09-09T03:17:20;23.07;;;21.07;;
16193;SDS011;8204;53.582;10.080;2022-09-09T03:19:48;24.43;;;22.33;;
16193;SDS011;8204;53.582;10.080;2022-09-09T03:22:16;24.70;;;22.57;;
16193;SDS011;8204;53.582;10.080;2022-09-09T03:24:42;24.70;;;22.33;;
16193;SDS011;8204;53.582;10.080;2022-09-09T03:27:09;24.60;;;22.10;;
16193;SDS011;8204;53.582;10.080;2022-09-09T03:29:35;26.43;;;24.13;;
16193;SDS011;8204;53.582;10.080;2022-09-09T03:32:02;24.87;;;22.60;;
16193;SDS011;8204;53.582;10.080;2022-09-09T03:34:28;24.53;;;22.43;;
16193;SDS011;8204;53.582;10.080;2022-09-09T03:36:57;23.43;;;21.33;;
16193;SDS011;8204;53.582;10.080;2022-09-09T03:39:24;26.70;;;24.50;;
16193;SDS011;8204;53.582;10.080;2022-09-09T03:41:50;23.97;;;21.87;;
16193;SDS011;8204;53.582;10.080;2022-09-09T03:44:16;25.40;;;23.10;;
16193;SDS011;8204;53.582;10.080;2022-09-09T03:46:43;24.07;;;22.07;;
16193;SDS011;8204;53.582;10.080;2022-09-09T03:49:09;23.67;;;21.53;;
16193;SDS011;8204;53.582;10.080;2022-09-09T03:51:36;22.33;;;20.43;;
16193;SDS011;8204;53.582;10.080;2022-09-09T03:54:05;23.47;;;21.37;;
16193;SDS011;8204;53.582;10.080;2022-09-09T03:56:33;22.97;;;20.47;;
16193;SDS011;8204;53.582;10.080;2022-09-09T03:59:00;24.40;;;22.30;;
16193;SDS011;8204;53.582;10.080;2022-09-09T04:01:27;29.17;;;26.57;;
16193;SDS011;8204;53.582;10.080;2022-09-09T04:03:54;22.87;;;20.80;;
16193;SDS011;8204;53.582;10.080;2022-09-09T04:06:23;21.37;;;19.57;;
16193;SDS011;8204;53.582;10.080;2022-09-09T04:08:51;20.47;;;18.70;;
16193;SDS011;8204;53.582;10.080;2022-09-09T04:11:19;19.93;;;18.30;;
16193;SDS011;8204;53.582;10.080;2022-09-09T04:13:45;21.30;;;19.50;;
16193;SDS011;8204;53.582;10.080;2022-09-09T04:16:12;20.03;;;18.33;;
16193;SDS011;8204;53.582;10.080;2022-09-09T04:18:39;20.60;;;18.97;;
16193;SDS011;8204;53.582;10.080;2022-09-09T04:21:06;21.43;;;19.63;;
16193;SDS011;8204;53.582;10.080;2022-09-09T04:23:33;23.03;;;20.97;;
16193;SDS011;8204;53.582;10.080;2022-09-09T04:26:01;24.43;;;22.33;;
16193;SDS011;8204;53.582;10.080;2022-09-09T04:28:31;22.23;;;20.27;;
16193;SDS011;8204;53.582;10.080;2022-09-09T04:31:03;20.50;;;18.80;;
16193;SDS011;8204;53.582;10.080;2022-09-09T04:33:31;22.07;;;20.07;;
16193;SDS011;8204;53.582;10.080;2022-09-09T04:35:57;20.17;;;18.30;;
16193;SDS011;8204;53.582;10.080;2022-09-09T04:38:24;20.27;;;18.57;;
16193;SDS011;8204;53.582;10.080;2022-09-09T04:40:51;21.37;;;19.40;;
16193;SDS011;8204;53.582;10.080;2022-09-09T04:43:19;25.87;;;23.37;;
16193;SDS011;8204;53.582;10.080;2022-09-09T04:45:47;24.13;;;22.10;;
16193;SDS011;8204;53.582;10.080;2022-09-09T04:48:16;22.47;;;20.47;;
16193;SDS011;8204;53.582;10.080;2022-09-09T04:50:42;22.00;;;19.90;;
16193;SDS011;8204;53.582;10.080;2022-09-09T04:53:12;20.50;;;18.53;;
16193;SDS011;8204;53.582;10.080;2022-09-09T04:55:39;19.63;;;18.10;;
16193;SDS011;8204;53.582;10.080;2022-09-09T04:58:05;20.90;;;19.00;;
16193;SDS011;8204;53.582;10.080;2022-09-09T05:00:33;21.63;;;19.73;;
16193;SDS011;8204;53.582;10.080;2022-09-09T05:03:03;21.07;;;19.27;;
16193;SDS011;8204;53.582;10.080;2022-09-09T05:05:30;20.13;;;18.40;;
16193;SDS011;8204;53.582;10.080;2022-09-09T05:08:00;21.07;;;19.27;;
16193;SDS011;8204;53.582;10.080;2022-09-09T05:10:28;21.27;;;19.37;;
16193;SDS011;8204;53.582;10.080;2022-09-09T05:12:55;18.73;;;17.23;;
16193;SDS011;8204;53.582;10.080;2022-09-09T05:15:21;21.27;;;19.37;;
16193;SDS011;8204;53.582;10.080;2022-09-09T05:17:48;20.70;;;19.00;;
16193;SDS011;8204;53.582;10.080;2022-09-09T05:20:16;19.57;;;17.70;;
16193;SDS011;8204;53.582;10.080;2022-09-09T05:22:42;18.43;;;16.93;;
16193;SDS011;8204;53.582;10.080;2022-09-09T05:25:09;19.27;;;17.57;;
16193;SDS011;8204;53.582;10.080;2022-09-09T05:27:35;19.03;;;17.43;;
16193;SDS011;8204;53.582;10.080;2022-09-09T05:30:03;19.20;;;17.57;;
16193;SDS011;8204;53.582;10.080;2022-09-09T05:32:29;17.20;;;15.73;;
16193;SDS011;8204;53.582;10.080;2022-09-09T05:34:59;19.03;;;17.47;;
16193;SDS011;8204;53.582;10.080;2022-09-09T05:37:27;17.17;;;15.67;;
16193;SDS011;8204;53.582;10.080;2022-09-09T05:39:55;18.10;;;16.27;;
16193;SDS011;8204;53.582;10.080;2022-09-09T05:42:21;22.13;;;20.10;;
16193;SDS011;8204;53.582;10.080;2022-09-09T05:44:48;23.20;;;21.03;;
16193;SDS011;8204;53.582;10.080;2022-09-09T05:47:16;18.13;;;16.63;;
16193;SDS011;8204;53.582;10.080;2022-09-09T05:49:42;21.50;;;19.60;;
16193;SDS011;8204;53.582;10.080;2022-09-09T05:52:08;21.57;;;19.70;;
16193;SDS011;8204;53.582;10.080;2022-09-09T05:54:36;17.53;;;16.00;;
16193;SDS011;8204;53.582;10.080;2022-09-09T05:57:04;16.13;;;14.63;;
16193;SDS011;8204;53.582;10.080;2022-09-09T05:59:31;16.63;;;15.13;;
16193;SDS011;8204;53.582;10.080;2022-09-09T06:01:57;16.43;;;15.03;;
16193;SDS011;8204;53.582;10.080;2022-09-09T06:04:24;16.70;;;15.20;;
16193;SDS011;8204;53.582;10.080;2022-09-09T06:06:50;15.87;;;14.07;;
16193;SDS011;8204;53.582;10.080;2022-09-09T06:09:17;14.00;;;12.60;;
16193;SDS011;8204;53.582;10.080;2022-09-09T06:11:44;13.47;;;12.27;;
16193;SDS011;8204;53.582;10.080;2022-09-09T06:14:14;14.77;;;13.40;;
16193;SDS011;8204;53.582;10.080;2022-09-09T06:16:43;13.83;;;12.63;;
16193;SDS011;8204;53.582;10.080;2022-09-09T06:19:10;16.53;;;14.93;;
16193;SDS011;8204;53.582;10.080;2022-09-09T06:21:37;13.90;;;12.70;;
16193;SDS011;8204;53.582;10.080;2022-09-09T06:24:05;13.03;;;11.77;;
16193;SDS011;8204;53.582;10.080;2022-09-09T06:26:34;14.17;;;12.93;;
16193;SDS011;8204;53.582;10.080;2022-09-09T06:29:02;14.20;;;12.97;;
16193;SDS011;8204;53.582;10.080;2022-09-09T06:31:31;12.77;;;11.57;;
16193;SDS011;8204;53.582;10.080;2022-09-09T06:33:59;14.73;;;13.43;;
16193;SDS011;8204;53.582;10.080;2022-09-09T06:36:26;12.50;;;11.40;;
16193;SDS011;8204;53.582;10.080;2022-09-09T06:38:54;13.43;;;12.10;;
16193;SDS011;8204;53.582;10.080;2022-09-09T06:41:22;12.23;;;11.20;;
16193;SDS011;8204;53.582;10.080;2022-09-09T06:43:50;13.43;;;11.57;;
16193;SDS011;8204;53.582;10.080;2022-09-09T06:46:19;12.60;;;11.63;;
16193;SDS011;8204;53.582;10.080;2022-09-09T06:48:47;11.27;;;10.37;;
16193;SDS011;8204;53.582;10.080;2022-09-09T06:51:14;12.43;;;11.13;;
16193;SDS011;8204;53.582;10.080;2022-09-09T06:53:43;12.93;;;11.67;;
16193;SDS011;8204;53.582;10.080;2022-09-09T06:56:17;15.27;;;10.97;;
16193;SDS011;8204;53.582;10.080;2022-09-09T06:58:46;12.37;;;11.37;;
16193;SDS011;8204;53.582;10.080;2022-09-09T07:01:14;12.43;;;11.40;;
16193;SDS011;8204;53.582;10.080;2022-09-09T07:03:46;12.20;;;11.07;;
16193;SDS011;8204;53.582;10.080;2022-09-09T07:06:15;12.27;;;10.33;;
16193;SDS011;8204;53.582;10.080;2022-09-09T07:08:47;13.17;;;11.97;;
16193;SDS011;8204;53.582;10.080;2022-09-09T07:11:15;12.40;;;11.37;;
16193;SDS011;8204;53.582;10.080;2022-09-09T07:13:41;12.47;;;11.17;;
16193;SDS011;8204;53.582;10.080;2022-09-09T07:16:09;11.37;;;10.37;;
16193;SDS011;8204;53.582;10.080;2022-09-09T07:18:37;11.60;;;10.70;;
16193;SDS011;8204;53.582;10.080;2022-09-09T07:21:06;10.93;;;9.80;;
16193;SDS011;8204;53.582;10.080;2022-09-09T07:23:33;9.70;;;8.83;;
16193;SDS011;8204;53.582;10.080;2022-09-09T07:26:01;11.03;;;9.87;;
16193;SDS011;8204;53.582;10.080;2022-09-09T07:28:28;9.77;;;8.97;;
16193;SDS011;8204;53.582;10.080;2022-09-09T07:30:56;10.17;;;9.17;;
16193;SDS011;8204;53.582;10.080;2022-09-09T07:33:24;9.13;;;8.30;;
16193;SDS011;8204;53.582;10.080;2022-09-09T07:35:51;15.43;;;8.43;;
16193;SDS011;8204;53.582;10.080;2022-09-09T07:38:19;10.20;;;9.27;;
16193;SDS011;8204;53.582;10.080;2022-09-09T07:40:47;9.30;;;8.13;;
16193;SDS011;8204;53.582;10.080;2022-09-09T07:43:14;10.27;;;7.60;;
16193;SDS011;8204;53.582;10.080;2022-09-09T07:45:43;7.30;;;6.70;;
16193;SDS011;8204;53.582;10.080;2022-09-09T07:48:10;8.70;;;7.90;;
16193;SDS011;8204;53.582;10.080;2022-09-09T07:50:36;9.03;;;8.27;;
16193;SDS011;8204;53.582;10.080;2022-09-09T07:53:04;7.47;;;6.83;;
16193;SDS011;8204;53.582;10.080;2022-09-09T07:55:32;10.10;;;7.40;;
16193;SDS011;8204;53.582;10.080;2022-09-09T07:57:59;8.03;;;7.33;;
16193;SDS011;8204;53.582;10.080;2022-09-09T08:00:25;9.60;;;8.57;;
16193;SDS011;8204;53.582;10.080;2022-09-09T08:02:53;7.63;;;6.97;;
16193;SDS011;8204;53.582;10.080;2022-09-09T08:05:20;8.60;;;7.77;;
16193;SDS011;8204;53.582;10.080;2022-09-09T08:07:47;7.37;;;6.63;;
16193;SDS011;8204;53.582;10.080;2022-09-09T08:10:13;9.37;;;6.90;;
16193;SDS011;8204;53.582;10.080;2022-09-09T08:12:42;8.80;;;7.27;;
16193;SDS011;8204;53.582;10.080;2022-09-09T08:15:09;8.07;;;7.37;;
16193;SDS011;8204;53.582;10.080;2022-09-09T08:17:35;10.27;;;9.00;;
16193;SDS011;8204;53.582;10.080;2022-09-09T08:20:03;7.00;;;6.37;;
16193;SDS011;8204;53.582;10.080;2022-09-09T08:22:32;7.03;;;6.43;;
16193;SDS011;8204;53.582;10.080;2022-09-09T08:24:59;10.23;;;6.67;;
16193;SDS011;8204;53.582;10.080;2022-09-09T08:27:27;11.03;;;8.07;;
16193;SDS011;8204;53.582;10.080;2022-09-09T08:29:54;7.07;;;6.40;;
16193;SDS011;8204;53.582;10.080;2022-09-09T08:32:21;6.70;;;6.20;;
16193;SDS011;8204;53.582;10.080;2022-09-09T08:34:48;7.20;;;6.10;;
16193;SDS011;8204;53.582;10.080;2022-09-09T08:37:14;7.00;;;6.40;;
16193;SDS011;8204;53.582;10.080;2022-09-09T08:39:41;7.70;;;6.87;;
16193;SDS011;8204;53.582;10.080;2022-09-09T08:42:11;8.70;;;6.27;;
16193;SDS011;8204;53.582;10.080;2022-09-09T08:44:50;7.13;;;6.23;;
16193;SDS011;8204;53.582;10.080;2022-09-09T08:47:30;10.20;;;6.37;;
16193;SDS011;8204;53.582;10.080;2022-09-09T08:50:12;9.60;;;6.90;;
16193;SDS011;8204;53.582;10.080;2022-09-09T08:52:47;6.10;;;4.93;;
16193;SDS011;8204;53.582;10.080;2022-09-09T08:55:23;6.23;;;5.70;;
16193;SDS011;8204;53.582;10.080;2022-09-09T08:57:53;6.77;;;6.13;;
16193;SDS011;8204;53.582;10.080;2022-09-09T09:00:23;8.57;;;7.70;;
16193;SDS011;8204;53.582;10.080;2022-09-09T09:03:01;6.83;;;5.23;;
16193;SDS011;8204;53.582;10.080;2022-09-09T09:05:36;5.80;;;5.30;;
16193;SDS011;8204;53.582;10.080;2022-09-09T09:08:11;7.63;;;5.77;;
16193;SDS011;8204;53.582;10.080;2022-09-09T09:10:45;6.50;;;4.83;;
16193;SDS011;8204;53.582;10.080;2022-09-09T09:13:14;6.97;;;5.70;;
16193;SDS011;8204;53.582;10.080;2022-09-09T09:15:46;5.70;;;5.20;;
16193;SDS011;8204;53.582;10.080;2022-09-09T09:18:15;6.80;;;5.70;;
16193;SDS011;8204;53.582;10.080;2022-09-09T09:20:47;5.20;;;4.80;;
16193;SDS011;8204;53.582;10.080;2022-09-09T09:23:21;9.53;;;5.30;;
16193;SDS011;8204;53.582;10.080;2022-09-09T09:25:50;13.10;;;5.70;;
16193;SDS011;8204;53.582;10.080;2022-09-09T09:28:19;6.60;;;4.50;;
16193;SDS011;8204;53.582;10.080;2022-09-09T09:30:52;5.73;;;4.73;;
16193;SDS011;8204;53.582;10.080;2022-09-09T09:33:23;5.33;;;4.50;;
16193;SDS011;8204;53.582;10.080;2022-09-09T09:35:53;5.73;;;4.63;;
16193;SDS011;8204;53.582;10.080;2022-09-09T09:38:21;4.73;;;4.33;;
16193;SDS011;8204;53.582;10.080;2022-09-09T09:40:49;5.20;;;4.50;;
16193;SDS011;8204;53.582;10.080;2022-09-09T09:43:23;5.03;;;4.63;;
16193;SDS011;8204;53.582;10.080;2022-09-09T09:45:53;4.30;;;3.53;;
16193;SDS011;8204;53.582;10.080;2022-09-09T09:48:20;5.47;;;4.13;;
16193;SDS011;8204;53.582;10.080;2022-09-09T09:50:49;4.30;;;3.90;;
16193;SDS011;8204;53.582;10.080;2022-09-09T09:53:20;8.03;;;4.57;;
16193;SDS011;8204;53.582;10.080;2022-09-09T09:55:50;4.60;;;4.20;;
16193;SDS011;8204;53.582;10.080;2022-09-09T09:58:20;5.10;;;4.27;;
16193;SDS011;8204;53.582;10.080;2022-09-09T10:00:47;4.60;;;3.83;;
16193;SDS011;8204;53.582;10.080;2022-09-09T10:03:21;7.07;;;3.73;;
16193;SDS011;8204;53.582;10.080;2022-09-09T10:05:50;4.77;;;3.73;;
16193;SDS011;8204;53.582;10.080;2022-09-09T10:08:17;4.33;;;3.90;;
16193;SDS011;8204;53.582;10.080;2022-09-09T10:10:52;7.07;;;3.50;;
16193;SDS011;8204;53.582;10.080;2022-09-09T10:13:32;3.33;;;3.03;;
16193;SDS011;8204;53.582;10.080;2022-09-09T10:16:09;3.83;;;3.43;;
16193;SDS011;8204;53.582;10.080;2022-09-09T10:18:59;3.80;;;3.37;;
16193;SDS011;8204;53.582;10.080;2022-09-09T10:24:33;6.30;;;4.00;;
16193;SDS011;8204;53.582;10.080;2022-09-09T10:27:11;4.20;;;3.30;;
16193;SDS011;8204;53.582;10.080;2022-09-09T10:32:39;4.40;;;3.13;;
16193;SDS011;8204;53.582;10.080;2022-09-09T10:35:29;4.97;;;2.90;;
16193;SDS011;8204;53.582;10.080;2022-09-09T10:38:11;4.07;;;2.87;;
16193;SDS011;8204;53.582;10.080;2022-09-09T10:40:45;3.97;;;2.60;;
16193;SDS011;8204;53.582;10.080;2022-09-09T10:43:31;2.30;;;2.10;;
16193;SDS011;8204;53.582;10.080;2022-09-09T10:46:09;4.17;;;2.27;;
16193;SDS011;8204;53.582;10.080;2022-09-09T10:48:49;5.53;;;2.10;;
16193;SDS011;8204;53.582;10.080;2022-09-09T10:51:33;2.30;;;1.60;;
16193;SDS011;8204;53.582;10.080;2022-09-09T10:54:11;3.07;;;1.90;;
16193;SDS011;8204;53.582;10.080;2022-09-09T10:56:52;2.57;;;1.43;;
16193;SDS011;8204;53.582;10.080;2022-09-09T10:59:23;3.80;;;2.30;;
16193;SDS011;8204;53.582;10.080;2022-09-09T11:01:54;4.43;;;2.53;;
16193;SDS011;8204;53.582;10.080;2022-09-09T11:04:27;2.07;;;1.93;;
16193;SDS011;8204;53.582;10.080;2022-09-09T11:07:02;3.17;;;2.00;;
16193;SDS011;8204;53.582;10.080;2022-09-09T11:09:35;4.20;;;2.13;;
16193;SDS011;8204;53.582;10.080;2022-09-09T11:12:08;3.37;;;2.33;;
16193;SDS011;8204;53.582;10.080;2022-09-09T11:14:43;4.80;;;2.50;;
16193;SDS011;8204;53.582;10.080;2022-09-09T11:17:15;2.03;;;1.90;;
16193;SDS011;8204;53.582;10.080;2022-09-09T11:19:44;3.87;;;2.73;;
16193;SDS011;8204;53.582;10.080;2022-09-09T11:22:18;1.70;;;1.60;;
16193;SDS011;8204;53.582;10.080;2022-09-09T11:24:54;2.30;;;2.07;;
16193;SDS011;8204;53.582;10.080;2022-09-09T11:27:26;3.40;;;2.20;;
16193;SDS011;8204;53.582;10.080;2022-09-09T11:30:04;2.40;;;2.20;;
16193;SDS011;8204;53.582;10.080;2022-09-09T11:35:38;3.50;;;2.67;;
16193;SDS011;8204;53.582;10.080;2022-09-09T11:38:18;4.67;;;2.73;;
16193;SDS011;8204;53.582;10.080;2022-09-09T11:40:47;4.53;;;2.60;;
16193;SDS011;8204;53.582;10.080;2022-09-09T11:43:22;3.50;;;2.07;;
16193;SDS011;8204;53.582;10.080;2022-09-09T11:45:53;3.63;;;2.67;;
16193;SDS011;8204;53.582;10.080;2022-09-09T11:48:26;4.50;;;3.13;;
16193;SDS011;8204;53.582;10.080;2022-09-09T11:50:58;2.50;;;2.10;;
16193;SDS011;8204;53.582;10.080;2022-09-09T11:53:29;2.07;;;1.87;;
16193;SDS011;8204;53.582;10.080;2022-09-09T11:56:06;3.63;;;2.20;;
16193;SDS011;8204;53.582;10.080;2022-09-09T11:58:37;4.93;;;2.10;;
16193;SDS011;8204;53.582;10.080;2022-09-09T12:01:13;3.00;;;2.10;;
16193;SDS011;8204;53.582;10.080;2022-09-09T12:03:41;3.50;;;2.17;;
16193;SDS011;8204;53.582;10.080;2022-09-09T12:06:11;4.50;;;3.40;;
16193;SDS011;8204;53.582;10.080;2022-09-09T12:08:43;3.73;;;3.40;;
16193;SDS011;8204;53.582;10.080;2022-09-09T12:11:23;6.50;;;2.83;;
16193;SDS011;8204;53.582;10.080;2022-09-09T12:13:52;3.63;;;2.87;;
16193;SDS011;8204;53.582;10.080;2022-09-09T12:16:27;2.27;;;1.80;;
16193;SDS011;8204;53.582;10.080;2022-09-09T12:19:03;3.43;;;2.13;;
16193;SDS011;8204;53.582;10.080;2022-09-09T12:21:33;2.50;;;2.30;;
16193;SDS011;8204;53.582;10.080;2022-09-09T12:24:06;4.63;;;2.60;;
16193;SDS011;8204;53.582;10.080;2022-09-09T12:26:36;2.97;;;2.70;;
16193;SDS011;8204;53.582;10.080;2022-09-09T12:29:09;2.60;;;2.00;;
16193;SDS011;8204;53.582;10.080;2022-09-09T12:31:46;4.83;;;2.40;;
16193;SDS011;8204;53.582;10.080;2022-09-09T12:34:20;4.03;;;2.93;;
16193;SDS011;8204;53.582;10.080;2022-09-09T12:37:00;3.77;;;2.90;;
16193;SDS011;8204;53.582;10.080;2022-09-09T12:39:33;4.40;;;2.37;;
16193;SDS011;8204;53.582;10.080;2022-09-09T12:42:04;4.60;;;2.50;;
16193;SDS011;8204;53.582;10.080;2022-09-09T12:44:31;3.93;;;2.57;;
16193;SDS011;8204;53.582;10.080;2022-09-09T12:46:59;3.53;;;2.40;;
16193;SDS011;8204;53.582;10.080;2022-09-09T12:49:29;3.27;;;2.60;;
16193;SDS011;8204;53.582;10.080;2022-09-09T12:52:00;2.60;;;2.40;;
16193;SDS011;8204;53.582;10.080;2022-09-09T12:54:29;2.60;;;2.40;;
16193;SDS011;8204;53.582;10.080;2022-09-09T12:56:57;3.70;;;2.60;;
16193;SDS011;8204;53.582;10.080;2022-09-09T12:59:24;2.47;;;2.27;;
16193;SDS011;8204;53.582;10.080;2022-09-09T13:01:55;5.13;;;2.80;;
16193;SDS011;8204;53.582;10.080;2022-09-09T13:04:22;3.70;;;2.57;;
16193;SDS011;8204;53.582;10.080;2022-09-09T13:06:49;3.23;;;2.57;;
16193;SDS011;8204;53.582;10.080;2022-09-09T13:09:17;4.13;;;2.67;;
16193;SDS011;8204;53.582;10.080;2022-09-09T13:11:45;5.13;;;2.70;;
16193;SDS011;8204;53.582;10.080;2022-09-09T13:14:18;4.27;;;3.57;;
16193;SDS011;8204;53.582;10.080;2022-09-09T13:16:56;3.47;;;3.17;;
16193;SDS011;8204;53.582;10.080;2022-09-09T13:19:24;3.10;;;2.77;;
16193;SDS011;8204;53.582;10.080;2022-09-09T13:21:52;4.10;;;3.13;;
16193;SDS011;8204;53.582;10.080;2022-09-09T13:24:23;4.97;;;3.57;;
16193;SDS011;8204;53.582;10.080;2022-09-09T13:26:55;3.63;;;3.20;;
16193;SDS011;8204;53.582;10.080;2022-09-09T13:29:23;5.93;;;3.60;;
16193;SDS011;8204;53.582;10.080;2022-09-09T13:31:50;4.33;;;4.03;;
16193;SDS011;8204;53.582;10.080;2022-09-09T13:34:27;5.03;;;3.63;;
16193;SDS011;8204;53.582;10.080;2022-09-09T13:36:57;4.33;;;3.23;;
16193;SDS011;8204;53.582;10.080;2022-09-09T13:39:27;4.83;;;3.43;;
16193;SDS011;8204;53.582;10.080;2022-09-09T13:41:54;5.60;;;3.87;;
16193;SDS011;8204;53.582;10.080;2022-09-09T13:44:25;4.10;;;3.77;;
16193;SDS011;8204;53.582;10.080;2022-09-09T13:47:00;4.87;;;4.33;;
16193;SDS011;8204;53.582;10.080;2022-09-09T13:49:29;5.13;;;4.73;;
16193;SDS011;8204;53.582;10.080;2022-09-09T13:52:04;7.73;;;5.60;;
16193;SDS011;8204;53.582;10.080;2022-09-09T13:54:35;5.93;;;5.37;;
16193;SDS011;8204;53.582;10.080;2022-09-09T13:57:01;5.47;;;4.97;;
16193;SDS011;8204;53.582;10.080;2022-09-09T13:59:30;6.80;;;5.90;;
16193;SDS011;8204;53.582;10.080;2022-09-09T14:01:57;6.43;;;5.83;;
16193;SDS011;8204;53.582;10.080;2022-09-09T14:04:24;6.57;;;5.33;;
16193;SDS011;8204;53.582;10.080;2022-09-09T14:06:51;6.27;;;5.37;;
16193;SDS011;8204;53.582;10.080;2022-09-09T14:09:17;7.97;;;5.23;;
16193;SDS011;8204;53.582;10.080;2022-09-09T14:11:44;7.00;;;5.50;;
16193;SDS011;8204;53.582;10.080;2022-09-09T14:14:11;12.10;;;9.13;;
16193;SDS011;8204;53.582;10.080;2022-09-09T14:16:40;6.97;;;6.27;;
16193;SDS011;8204;53.582;10.080;2022-09-09T14:19:07;9.00;;;6.63;;
16193;SDS011;8204;53.582;10.080;2022-09-09T14:21:34;7.63;;;5.30;;
16193;SDS011;8204;53.582;10.080;2022-09-09T14:24:00;6.07;;;5.37;;
16193;SDS011;8204;53.582;10.080;2022-09-09T14:26:27;6.30;;;5.60;;
16193;SDS011;8204;53.582;10.080;2022-09-09T14:28:55;5.33;;;4.83;;
16193;SDS011;8204;53.582;10.080;2022-09-09T14:31:21;5.13;;;4.67;;
16193;SDS011;8204;53.582;10.080;2022-09-09T14:33:50;5.53;;;4.83;;
16193;SDS011;8204;53.582;10.080;2022-09-09T14:36:17;4.30;;;3.93;;
16193;SDS011;8204;53.582;10.080;2022-09-09T14:38:44;7.63;;;3.87;;
16193;SDS011;8204;53.582;10.080;2022-09-09T14:41:12;8.03;;;5.17;;
16193;SDS011;8204;53.582;10.080;2022-09-09T14:43:42;6.10;;;5.13;;
16193;SDS011;8204;53.582;10.080;2022-09-09T14:46:09;8.77;;;5.57;;
16193;SDS011;8204;53.582;10.080;2022-09-09T14:48:37;9.60;;;4.70;;
16193;SDS011;8204;53.582;10.080;2022-09-09T14:51:07;4.87;;;4.43;;
16193;SDS011;8204;53.582;10.080;2022-09-09T14:53:35;3.90;;;3.50;;
16193;SDS011;8204;53.582;10.080;2022-09-09T14:56:03;6.30;;;4.93;;
16193;SDS011;8204;53.582;10.080;2022-09-09T14:58:31;4.63;;;4.17;;
16193;SDS011;8204;53.582;10.080;2022-09-09T15:01:01;8.53;;;4.60;;
16193;SDS011;8204;53.582;10.080;2022-09-09T15:03:30;8.13;;;5.53;;